createdAt,value
2022-11-16T00:00:30.746Z,82.26
2022-11-16T00:02:57.597Z,82.46
2022-11-16T00:05:28.387Z,82.58
2022-11-16T00:07:55.699Z,82.75
2022-11-16T00:10:22.507Z,82.70
2022-11-16T00:12:49.310Z,82.96
2022-11-16T00:15:16.159Z,82.87
2022-11-16T00:17:42.863Z,82.89
2022-11-16T00:20:10.221Z,82.92
2022-11-16T00:22:36.941Z,82.83
2022-11-16T00:25:03.953Z,82.73
2022-11-16T00:27:30.758Z,82.74
2022-11-16T00:29:57.840Z,82.67
2022-11-16T00:32:24.640Z,82.53
2022-11-16T00:34:51.387Z,82.25
2022-11-16T00:37:18.322Z,82.18
2022-11-16T00:39:45.317Z,82.27
2022-11-16T00:42:12.658Z,82.07
2022-11-16T00:44:39.433Z,81.84
2022-11-16T00:47:06.606Z,81.57
2022-11-16T00:49:33.536Z,81.41
2022-11-16T00:52:00.522Z,81.23
2022-11-16T00:54:27.618Z,81.13
2022-11-16T00:56:54.852Z,80.83
2022-11-16T00:59:22.742Z,80.63
2022-11-16T01:01:50.955Z,80.70
2022-11-16T01:04:17.706Z,80.64
2022-11-16T01:06:44.443Z,80.69
2022-11-16T01:09:11.142Z,80.77
2022-11-16T01:11:53.613Z,80.78
2022-11-16T01:14:20.335Z,80.75
2022-11-16T01:16:49.672Z,80.87
2022-11-16T01:19:16.475Z,81.08
2022-11-16T01:21:43.222Z,81.18
2022-11-16T01:24:11.189Z,81.44
2022-11-16T01:26:37.991Z,81.73
2022-11-16T01:29:05.079Z,81.73
2022-11-16T01:31:36.059Z,81.53
2022-11-16T01:34:03.824Z,81.38
2022-11-16T01:36:30.891Z,81.07
2022-11-16T01:38:59.732Z,81.00
2022-11-16T01:41:30.254Z,80.88
2022-11-16T01:44:02.397Z,80.95
2022-11-16T01:46:35.096Z,80.77
2022-11-16T01:49:11.119Z,80.69
2022-11-16T01:51:39.724Z,80.43
2022-11-16T01:54:10.065Z,80.50
2022-11-16T01:56:39.671Z,80.57
2022-11-16T01:59:12.957Z,80.40
2022-11-16T02:01:40.475Z,80.45
2022-11-16T02:04:11.423Z,80.60
2022-11-16T02:06:55.747Z,80.86
2022-11-16T02:09:47.948Z,80.89
2022-11-16T02:12:23.875Z,80.92
2022-11-16T02:15:22.008Z,80.96
2022-11-16T02:18:10.845Z,80.71
2022-11-16T02:20:38.123Z,80.53
2022-11-16T02:23:20.763Z,80.69
2022-11-16T02:26:19.386Z,80.53
2022-11-16T02:28:46.087Z,80.51
2022-11-16T02:31:18.828Z,80.44
2022-11-16T02:33:48.851Z,80.68
2022-11-16T02:36:22.449Z,80.53
2022-11-16T02:39:08.470Z,80.41
2022-11-16T02:41:41.031Z,80.76
2022-11-16T02:44:17.727Z,80.96
2022-11-16T02:46:48.615Z,81.08
2022-11-16T02:49:19.140Z,81.04
2022-11-16T02:51:47.732Z,81.10
2022-11-16T02:54:18.449Z,81.31
2022-11-16T02:56:52.368Z,81.25
2022-11-16T02:59:24.406Z,81.16
2022-11-16T03:02:16.312Z,80.98
2022-11-16T03:04:49.389Z,80.99
2022-11-16T03:07:21.181Z,80.88
2022-11-16T03:09:51.409Z,80.78
2022-11-16T03:12:24.242Z,80.67
2022-11-16T03:14:59.084Z,80.75
2022-11-16T03:17:31.626Z,81.00
2022-11-16T03:20:07.419Z,81.11
2022-11-16T03:22:42.237Z,81.03
2022-11-16T03:25:13.034Z,80.84
2022-11-16T03:27:57.069Z,80.96
2022-11-16T03:30:28.326Z,80.97
2022-11-16T03:33:04.642Z,80.77
2022-11-16T03:35:36.552Z,80.62
2022-11-16T03:38:06.292Z,80.78
2022-11-16T03:40:35.805Z,80.44
2022-11-16T03:43:06.408Z,80.49
2022-11-16T03:45:34.127Z,80.68
2022-11-16T03:48:01.065Z,80.64
2022-11-16T03:50:28.407Z,80.70
2022-11-16T03:52:56.170Z,80.82
2022-11-16T03:55:23.333Z,81.02
2022-11-16T03:57:50.225Z,81.16
2022-11-16T04:00:17.322Z,80.71
2022-11-16T04:02:44.502Z,80.62
2022-11-16T04:05:32.147Z,80.55
2022-11-16T04:08:14.627Z,80.60
2022-11-16T04:10:56.786Z,80.81
2022-11-16T04:13:44.159Z,80.96
2022-11-16T04:16:26.624Z,81.23
2022-11-16T04:19:13.491Z,81.00
2022-11-16T04:22:01.975Z,81.09
2022-11-16T04:24:34.983Z,80.85
2022-11-16T04:27:21.467Z,81.19
2022-11-16T04:29:49.119Z,80.97
2022-11-16T04:32:32.113Z,81.00
2022-11-16T04:35:14.653Z,81.25
2022-11-16T04:37:49.006Z,81.64
2022-11-16T04:40:22.554Z,81.98
2022-11-16T04:42:52.832Z,82.27
2022-11-16T04:45:35.954Z,82.72
2022-11-16T04:48:03.511Z,83.00
2022-11-16T04:50:31.201Z,83.34
2022-11-16T04:52:59.106Z,83.48
2022-11-16T04:55:26.823Z,83.95
2022-11-16T04:57:53.766Z,84.07
2022-11-16T05:00:21.590Z,84.27
2022-11-16T05:02:49.181Z,84.67
2022-11-16T05:05:16.784Z,84.75
2022-11-16T05:07:44.211Z,84.82
2022-11-16T05:10:16.452Z,84.77
2022-11-16T05:12:43.338Z,85.00
2022-11-16T05:15:10.753Z,84.46
2022-11-16T05:17:39.016Z,84.50
2022-11-16T05:20:26.290Z,84.82
2022-11-16T05:22:58.913Z,85.12
2022-11-16T05:25:33.830Z,85.17
2022-11-16T05:28:04.463Z,85.02
2022-11-16T05:30:33.062Z,84.97
2022-11-16T05:33:00.254Z,84.92
2022-11-16T05:35:28.271Z,84.28
2022-11-16T05:37:55.230Z,84.02
2022-11-16T05:40:22.923Z,84.72
2022-11-16T05:42:57.507Z,85.01
2022-11-16T05:45:25.240Z,85.14
2022-11-16T05:47:52.132Z,85.23
2022-11-16T05:50:20.601Z,85.28
2022-11-16T05:52:58.602Z,85.25
2022-11-16T05:55:25.455Z,85.17
2022-11-16T05:57:52.263Z,85.23
2022-11-16T06:00:19.663Z,85.13
2022-11-16T06:02:47.669Z,85.05
2022-11-16T06:08:05.788Z,85.15
2022-11-16T06:10:33.093Z,85.18
2022-11-16T06:13:00.473Z,85.26
2022-11-16T06:15:27.487Z,85.35
2022-11-16T06:17:54.445Z,85.20
2022-11-16T06:20:21.445Z,85.32
2022-11-16T06:22:48.305Z,85.51
2022-11-16T06:25:15.948Z,85.73
2022-11-16T06:27:43.640Z,86.03
2022-11-16T06:30:11.488Z,86.12
2022-11-16T06:32:39.009Z,86.27
2022-11-16T06:35:06.805Z,86.42
2022-11-16T06:37:34.156Z,86.61
2022-11-16T06:40:00.980Z,86.72
2022-11-16T06:42:28.904Z,86.75
2022-11-16T06:44:55.837Z,86.61
2022-11-16T06:47:28.001Z,86.75
2022-11-16T06:49:55.227Z,86.49
2022-11-16T06:52:22.623Z,86.32
2022-11-16T06:54:50.322Z,86.23
2022-11-16T06:57:17.637Z,86.01
2022-11-16T06:59:45.119Z,85.57
2022-11-16T07:02:12.937Z,85.49
2022-11-16T07:04:40.472Z,85.03
2022-11-16T07:07:07.366Z,84.92
2022-11-16T07:09:34.758Z,85.01
2022-11-16T07:12:01.643Z,84.79
2022-11-16T07:14:32.397Z,84.64
2022-11-16T07:17:01.143Z,84.67
2022-11-16T07:19:31.075Z,84.61
2022-11-16T07:21:58.671Z,84.46
2022-11-16T07:24:26.360Z,84.48
2022-11-16T07:26:53.316Z,84.57
2022-11-16T07:29:25.109Z,84.70
2022-11-16T07:32:11.889Z,84.39
2022-11-16T07:34:54.313Z,84.35
2022-11-16T07:37:21.326Z,84.55
2022-11-16T07:39:48.143Z,84.30
2022-11-16T07:42:14.982Z,84.29
2022-11-16T07:44:57.962Z,84.51
2022-11-16T07:47:24.835Z,84.63
2022-11-16T07:49:51.995Z,84.46
2022-11-16T07:52:21.022Z,84.48
2022-11-16T07:54:55.032Z,84.18
2022-11-16T07:57:24.229Z,84.10
2022-11-16T07:59:52.539Z,84.35
2022-11-16T08:02:19.418Z,84.43
2022-11-16T08:04:47.226Z,84.41
2022-11-16T08:07:14.732Z,84.75
2022-11-16T08:09:47.840Z,84.92
2022-11-16T08:12:15.251Z,84.98
2022-11-16T08:14:42.967Z,85.15
2022-11-16T08:17:09.764Z,85.22
2022-11-16T08:19:39.504Z,85.25
2022-11-16T08:22:07.512Z,85.21
2022-11-16T08:24:34.571Z,85.21
2022-11-16T08:27:01.555Z,85.15
2022-11-16T08:29:28.558Z,85.07
2022-11-16T08:31:56.876Z,84.69
2022-11-16T08:34:23.677Z,84.59
2022-11-16T08:36:53.049Z,84.36
2022-11-16T08:39:24.223Z,84.44
2022-11-16T08:41:51.433Z,84.28
2022-11-16T08:44:18.426Z,84.38
2022-11-16T08:46:47.563Z,84.35
2022-11-16T08:49:24.209Z,83.91
2022-11-16T08:51:52.449Z,84.03
2022-11-16T08:54:19.312Z,84.15
2022-11-16T08:56:46.458Z,83.96
2022-11-16T08:59:14.870Z,83.72
2022-11-16T09:01:46.410Z,83.66
2022-11-16T09:04:13.283Z,83.55
2022-11-16T09:06:40.094Z,83.62
2022-11-16T09:09:07.746Z,83.67
2022-11-16T09:11:34.545Z,83.43
2022-11-16T09:14:01.271Z,83.36
2022-11-16T09:16:28.550Z,83.46
2022-11-16T09:18:56.867Z,83.40
2022-11-16T09:21:26.734Z,83.54
2022-11-16T09:23:55.392Z,83.49
2022-11-16T09:26:23.380Z,83.50
2022-11-16T09:29:00.006Z,83.51
2022-11-16T09:31:28.617Z,83.52
2022-11-16T09:33:59.108Z,83.70
2022-11-16T09:36:27.590Z,83.94
2022-11-16T09:39:25.728Z,84.11
2022-11-16T09:42:12.949Z,84.40
2022-11-16T09:44:44.952Z,84.56
2022-11-16T09:47:19.173Z,84.51
2022-11-16T09:49:52.511Z,84.36
2022-11-16T09:52:33.195Z,83.95
2022-11-16T09:55:06.554Z,83.72
2022-11-16T09:57:37.585Z,83.36
2022-11-16T10:00:13.907Z,83.61
2022-11-16T10:02:47.875Z,83.16
2022-11-16T10:05:23.142Z,82.89
2022-11-16T10:07:54.329Z,83.22
2022-11-16T10:10:35.048Z,83.16
2022-11-16T10:13:19.953Z,82.96
2022-11-16T10:16:04.768Z,83.15
2022-11-16T10:18:44.851Z,83.23
2022-11-16T10:21:18.563Z,83.35
2022-11-16T10:24:08.944Z,82.90
2022-11-16T10:26:59.672Z,83.04
2022-11-16T10:29:40.169Z,83.24
2022-11-16T10:32:26.076Z,83.39
2022-11-16T10:34:54.391Z,83.33
2022-11-16T10:37:23.242Z,83.40
2022-11-16T10:39:53.365Z,83.26
2022-11-16T10:42:28.713Z,83.49
2022-11-16T10:45:05.154Z,83.65
2022-11-16T10:47:51.101Z,83.93
2022-11-16T10:50:37.957Z,83.89
2022-11-16T10:53:05.050Z,83.73
2022-11-16T10:55:32.009Z,83.89
2022-11-16T10:58:01.352Z,83.78
2022-11-16T11:00:35.353Z,83.90
2022-11-16T11:03:02.165Z,84.05
2022-11-16T11:05:30.443Z,84.16
2022-11-16T11:08:07.894Z,84.18
2022-11-16T11:10:36.052Z,84.16
2022-11-16T11:13:07.679Z,83.96
2022-11-16T11:15:34.590Z,83.99
2022-11-16T11:18:19.327Z,84.34
2022-11-16T11:20:51.283Z,84.59
2022-11-16T11:23:22.654Z,84.52
2022-11-16T11:25:52.367Z,84.36
2022-11-16T11:28:23.351Z,84.27
2022-11-16T11:30:53.981Z,84.16
2022-11-16T11:33:23.962Z,84.27
2022-11-16T11:36:08.206Z,84.31
2022-11-16T11:38:35.790Z,84.53
2022-11-16T11:41:05.904Z,84.54
2022-11-16T11:43:35.019Z,84.52
2022-11-16T11:46:16.497Z,84.75
2022-11-16T11:48:51.725Z,84.81
2022-11-16T11:51:27.993Z,85.42
2022-11-16T11:53:58.058Z,85.55
2022-11-16T11:56:27.803Z,85.12
2022-11-16T11:58:55.654Z,84.65
2022-11-16T12:01:37.974Z,83.82
2022-11-16T12:04:20.362Z,83.70
2022-11-16T12:06:57.907Z,83.88
2022-11-16T12:09:35.617Z,83.85
2022-11-16T12:12:25.549Z,84.07
2022-11-16T12:15:02.140Z,83.74
2022-11-16T12:17:44.635Z,83.67
2022-11-16T12:20:23.496Z,83.89
2022-11-16T12:22:51.367Z,84.01
2022-11-16T12:25:25.044Z,84.63
2022-11-16T12:28:22.908Z,84.82
2022-11-16T12:31:02.283Z,84.89
2022-11-16T12:33:42.135Z,84.36
2022-11-16T12:36:29.832Z,83.90
2022-11-16T12:39:08.179Z,84.06
2022-11-16T12:41:42.534Z,84.81
2022-11-16T12:44:12.698Z,85.43
2022-11-16T12:46:54.714Z,85.74
2022-11-16T12:49:44.396Z,85.17
2022-11-16T12:52:11.256Z,84.91
2022-11-16T12:55:11.047Z,84.67
2022-11-16T12:57:33.242Z,84.84
2022-11-16T13:00:17.756Z,85.26
2022-11-16T13:03:00.232Z,85.39
2022-11-16T13:05:42.511Z,85.12
2022-11-16T13:08:13.558Z,84.52
2022-11-16T13:10:45.722Z,84.91
2022-11-16T13:13:51.494Z,84.26
2022-11-16T13:16:10.952Z,84.37
2022-11-16T13:18:41.823Z,84.68
2022-11-16T13:21:18.629Z,84.37
2022-11-16T13:24:02.981Z,83.78
2022-11-16T13:26:42.980Z,84.14
2022-11-16T13:29:32.746Z,83.87
2022-11-16T13:32:18.422Z,82.87
2022-11-16T13:34:46.374Z,82.27
2022-11-16T13:37:43.977Z,81.42
2022-11-16T13:40:33.610Z,81.01
2022-11-16T13:43:03.827Z,80.93
2022-11-16T13:45:36.330Z,81.08
2022-11-16T13:48:16.368Z,81.43
2022-11-16T13:50:51.136Z,81.48
2022-11-16T13:56:25.623Z,81.21
2022-11-16T13:58:55.842Z,81.17
2022-11-16T14:01:23.944Z,81.24
2022-11-16T14:03:52.008Z,81.41
2022-11-16T14:06:19.862Z,81.44
2022-11-16T14:08:56.480Z,81.75
2022-11-16T14:11:37.459Z,82.12
2022-11-16T14:14:10.516Z,82.28
2022-11-16T14:16:52.544Z,82.67
2022-11-16T14:19:52.031Z,82.75
2022-11-16T14:22:34.174Z,82.87
2022-11-16T14:25:26.196Z,83.01
2022-11-16T14:28:07.464Z,83.18
2022-11-16T14:30:51.335Z,83.34
2022-11-16T14:33:30.140Z,82.81
2022-11-16T14:35:57.224Z,82.70
2022-11-16T14:38:33.422Z,83.30
2022-11-16T14:41:03.220Z,83.01
2022-11-16T14:43:49.577Z,83.38
2022-11-16T14:46:22.872Z,83.72
2022-11-16T14:48:51.242Z,83.61
2022-11-16T14:51:31.919Z,83.70
2022-11-16T14:54:05.513Z,83.43
2022-11-16T14:56:32.359Z,83.70
2022-11-16T14:59:02.302Z,84.24
2022-11-16T15:01:33.410Z,84.57
2022-11-16T15:04:03.696Z,84.51
2022-11-16T15:06:37.325Z,84.53
2022-11-16T15:09:05.393Z,84.48
2022-11-16T15:11:54.202Z,84.58
2022-11-16T15:14:24.975Z,84.66
2022-11-16T15:16:54.664Z,84.82
2022-11-16T15:19:22.409Z,84.97
2022-11-16T15:21:52.404Z,84.90
2022-11-16T15:24:30.360Z,84.74
2022-11-16T15:27:09.971Z,85.54
2022-11-16T15:29:37.502Z,85.05
2022-11-16T15:32:06.272Z,84.88
2022-11-16T15:34:38.947Z,84.44
2022-11-16T15:37:05.981Z,85.02
2022-11-16T15:39:36.078Z,85.20
2022-11-16T15:42:04.365Z,85.20
2022-11-16T15:44:32.225Z,85.32
2022-11-16T15:46:59.724Z,85.34
2022-11-16T15:49:31.843Z,84.59
2022-11-16T15:51:59.677Z,84.48
2022-11-16T15:54:29.411Z,84.34
2022-11-16T15:57:08.068Z,84.29
2022-11-16T15:59:37.159Z,84.97
2022-11-16T16:02:04.950Z,84.75
2022-11-16T16:04:31.759Z,85.02
2022-11-16T16:07:00.315Z,84.41
2022-11-16T16:09:32.207Z,84.24
2022-11-16T16:12:16.797Z,84.22
2022-11-16T16:14:44.586Z,84.62
2022-11-16T16:17:22.389Z,84.76
2022-11-16T16:19:57.386Z,85.15
2022-11-16T16:22:28.493Z,85.13
2022-11-16T16:24:55.509Z,85.00
2022-11-16T16:27:25.362Z,85.01
2022-11-16T16:29:56.402Z,84.65
2022-11-16T16:32:27.922Z,84.43
2022-11-16T16:34:57.158Z,84.44
2022-11-16T16:37:27.186Z,83.90
2022-11-16T16:39:53.985Z,83.58
2022-11-16T16:42:21.334Z,83.40
2022-11-16T16:44:48.690Z,83.52
2022-11-16T16:47:17.101Z,83.34
2022-11-16T16:49:43.985Z,82.92
2022-11-16T16:52:12.749Z,83.07
2022-11-16T16:54:40.732Z,82.55
2022-11-16T16:57:13.342Z,82.64
2022-11-16T16:59:41.460Z,82.67
2022-11-16T17:02:12.002Z,82.79
2022-11-16T17:04:38.782Z,82.55
2022-11-16T17:07:06.346Z,82.68
2022-11-16T17:09:33.269Z,82.40
2022-11-16T17:12:00.096Z,82.49
2022-11-16T17:14:26.786Z,82.27
2022-11-16T17:16:53.587Z,82.32
2022-11-16T17:19:21.064Z,82.26
2022-11-16T17:21:47.793Z,81.96
2022-11-16T17:24:14.485Z,81.81
2022-11-16T17:26:41.626Z,81.84
2022-11-16T17:29:08.394Z,82.14
2022-11-16T17:31:36.398Z,81.88
2022-11-16T17:34:03.422Z,81.89
2022-11-16T17:36:30.189Z,81.64
2022-11-16T17:38:58.534Z,81.81
2022-11-16T17:41:25.879Z,82.09
2022-11-16T17:43:54.488Z,81.91
2022-11-16T17:46:24.154Z,81.92
2022-11-16T17:48:51.739Z,82.14
2022-11-16T17:51:21.155Z,82.17
2022-11-16T17:53:49.870Z,82.52
2022-11-16T17:56:28.857Z,82.92
2022-11-16T17:58:58.394Z,82.59
2022-11-16T18:01:25.446Z,82.84
2022-11-16T18:03:52.229Z,82.89
2022-11-16T18:06:35.697Z,82.56
2022-11-16T18:09:02.532Z,82.38
2022-11-16T18:11:29.284Z,82.06
2022-11-16T18:14:27.943Z,81.51
2022-11-16T18:16:54.694Z,81.68
2022-11-16T18:19:21.586Z,81.75
2022-11-16T18:21:48.996Z,81.84
2022-11-16T18:24:16.218Z,81.94
2022-11-16T18:26:43.283Z,82.06
2022-11-16T18:29:16.146Z,82.05
2022-11-16T18:31:43.902Z,81.97
2022-11-16T18:34:14.365Z,82.46
2022-11-16T18:36:41.561Z,81.92
2022-11-16T18:39:08.447Z,82.37
2022-11-16T18:41:35.599Z,82.26
2022-11-16T18:44:17.999Z,82.30
2022-11-16T18:46:45.126Z,82.23
2022-11-16T18:49:12.216Z,82.18
2022-11-16T18:51:39.949Z,82.10
2022-11-16T18:54:07.083Z,81.94
2022-11-16T18:56:35.150Z,82.20
2022-11-16T18:59:02.749Z,81.99
2022-11-16T19:01:29.724Z,82.49
2022-11-16T19:03:57.747Z,82.60
2022-11-16T19:06:24.552Z,82.07
2022-11-16T19:08:59.688Z,82.00
2022-11-16T19:11:28.591Z,81.46
2022-11-16T19:14:00.040Z,81.11
2022-11-16T19:16:27.414Z,81.22
2022-11-16T19:19:09.845Z,80.95
2022-11-16T19:21:36.668Z,81.19
2022-11-16T19:24:06.993Z,81.42
2022-11-16T19:26:34.028Z,81.63
2022-11-16T19:29:04.291Z,81.40
2022-11-16T19:31:32.714Z,81.70
2022-11-16T19:34:02.793Z,81.34
2022-11-16T19:36:30.729Z,81.24
2022-11-16T19:38:57.880Z,81.30
2022-11-16T19:41:25.931Z,81.13
2022-11-16T19:43:58.431Z,81.14
2022-11-16T19:46:27.138Z,81.31
2022-11-16T19:48:55.361Z,81.19
2022-11-16T19:51:24.806Z,81.61
2022-11-16T19:53:52.220Z,81.42
2022-11-16T19:56:35.340Z,81.21
2022-11-16T19:59:02.173Z,81.22
2022-11-16T20:01:44.391Z,81.12
2022-11-16T20:04:11.134Z,81.18
2022-11-16T20:06:40.701Z,81.05
2022-11-16T20:09:25.748Z,80.85
2022-11-16T20:11:52.661Z,80.73
2022-11-16T20:14:19.547Z,80.69
2022-11-16T20:16:47.345Z,81.09
2022-11-16T20:19:14.857Z,80.37
2022-11-16T20:21:43.210Z,80.54
2022-11-16T20:24:28.249Z,80.33
2022-11-16T20:27:10.695Z,80.57
2022-11-16T20:29:37.357Z,80.58
2022-11-16T20:32:04.232Z,80.97
2022-11-16T20:34:31.171Z,81.22
2022-11-16T20:37:13.331Z,81.07
2022-11-16T20:39:40.112Z,80.75
2022-11-16T20:42:07.026Z,80.83
2022-11-16T20:44:33.846Z,81.16
2022-11-16T20:47:00.684Z,81.16
2022-11-16T20:49:27.424Z,81.13
2022-11-16T20:51:54.267Z,81.16
2022-11-16T20:54:21.225Z,81.02
2022-11-16T20:56:49.763Z,81.16
2022-11-16T20:59:16.745Z,81.16
2022-11-16T21:01:47.782Z,81.46
2022-11-16T21:04:15.430Z,81.49
2022-11-16T21:06:42.074Z,81.78
2022-11-16T21:09:11.544Z,81.67
2022-11-16T21:11:53.481Z,81.69
2022-11-16T21:14:20.385Z,82.04
2022-11-16T21:16:47.388Z,81.89
2022-11-16T21:19:14.311Z,82.04
2022-11-16T21:21:41.579Z,82.28
2022-11-16T21:24:09.293Z,82.18
2022-11-16T21:26:37.373Z,82.44
2022-11-16T21:29:04.387Z,82.55
2022-11-16T21:31:33.968Z,82.64
2022-11-16T21:34:01.488Z,82.38
2022-11-16T21:36:30.824Z,82.41
2022-11-16T21:38:58.850Z,82.30
2022-11-16T21:41:26.605Z,82.26
2022-11-16T21:43:53.672Z,82.30
2022-11-16T21:46:24.948Z,82.53
2022-11-16T21:48:54.013Z,82.47
2022-11-16T21:51:26.134Z,82.38
2022-11-16T21:53:53.596Z,82.52
2022-11-16T21:56:22.475Z,82.20
2022-11-16T21:58:52.712Z,82.32
2022-11-16T22:01:20.863Z,82.27
2022-11-16T22:04:07.806Z,82.53
2022-11-16T22:06:50.380Z,82.22
2022-11-16T22:09:17.213Z,82.13
2022-11-16T22:11:44.106Z,81.92
2022-11-16T22:14:11.494Z,81.88
2022-11-16T22:16:38.224Z,81.78
2022-11-16T22:19:05.251Z,81.72
2022-11-16T22:21:32.054Z,81.86
2022-11-16T22:23:58.981Z,81.74
2022-11-16T22:26:25.727Z,81.43
2022-11-16T22:28:53.389Z,81.41
2022-11-16T22:31:20.492Z,81.11
2022-11-16T22:33:51.848Z,81.28
2022-11-16T22:36:18.762Z,81.29
2022-11-16T22:38:45.628Z,81.45
2022-11-16T22:41:12.374Z,81.33
2022-11-16T22:43:39.522Z,81.31
2022-11-16T22:46:06.770Z,81.15
2022-11-16T22:48:36.080Z,81.23
2022-11-16T22:51:12.493Z,81.34
2022-11-16T22:53:39.325Z,81.28
2022-11-16T22:56:07.857Z,81.22
2022-11-16T22:58:36.094Z,81.21
2022-11-16T23:01:04.132Z,81.22
2022-11-16T23:03:31.403Z,81.34
2022-11-16T23:05:58.467Z,81.33
2022-11-16T23:08:26.148Z,81.59
2022-11-16T23:11:23.982Z,81.66
2022-11-16T23:14:07.396Z,81.68
2022-11-16T23:16:34.830Z,81.79
2022-11-16T23:19:02.120Z,81.69
2022-11-16T23:21:44.760Z,81.93
2022-11-16T23:24:28.346Z,81.91
2022-11-16T23:27:11.953Z,82.17
2022-11-16T23:29:38.738Z,82.13
2022-11-16T23:32:06.026Z,82.13
2022-11-16T23:34:32.974Z,82.07
2022-11-16T23:37:08.034Z,82.18
2022-11-16T23:39:35.029Z,82.42
2022-11-16T23:42:17.144Z,82.35
2022-11-16T23:44:43.984Z,82.41
2022-11-16T23:47:10.767Z,82.44
2022-11-16T23:49:37.465Z,82.32
2022-11-16T23:52:04.381Z,82.23
2022-11-16T23:54:31.073Z,82.36
2022-11-16T23:56:58.223Z,82.41
2022-11-16T23:59:24.972Z,82.51
